createdAt,value
2018-03-22T00:02:49.061Z,25.75
2018-03-22T00:04:26.473Z,23.75
2018-03-22T00:06:05.462Z,28.00
2018-03-22T00:07:43.011Z,26.25
2018-03-22T00:09:21.158Z,23.75
2018-03-22T00:10:58.986Z,23.50
2018-03-22T00:12:36.541Z,26.25
2018-03-22T00:14:14.922Z,27.75
2018-03-22T00:15:53.574Z,26.00
2018-03-22T00:17:32.922Z,23.50
2018-03-22T00:20:48.060Z,25.50
2018-03-22T00:22:38.444Z,24.50
2018-03-22T00:24:16.193Z,26.50
2018-03-22T00:25:53.574Z,25.25
2018-03-22T00:27:31.985Z,25.25
2018-03-22T00:29:11.135Z,25.25
2018-03-22T00:30:49.796Z,26.25
2018-03-22T00:32:27.478Z,26.75
2018-03-22T00:35:49.203Z,27.25
2018-03-22T00:37:26.593Z,24.25
2018-03-22T00:39:04.376Z,25.00
2018-03-22T00:40:42.231Z,29.50
2018-03-22T00:42:21.105Z,26.00
2018-03-22T00:43:58.813Z,27.75
2018-03-22T00:45:37.108Z,26.00
2018-03-22T00:47:15.376Z,25.75
2018-03-22T00:48:53.618Z,26.25
2018-03-22T00:50:31.381Z,28.50
2018-03-22T00:52:10.333Z,29.00
2018-03-22T00:53:49.129Z,27.50
2018-03-22T00:55:26.604Z,26.75
2018-03-22T00:57:04.200Z,28.50
2018-03-22T00:58:42.022Z,26.75
2018-03-22T01:00:24.792Z,25.75
2018-03-22T01:02:03.541Z,29.75
2018-03-22T01:03:45.640Z,26.75
2018-03-22T01:05:23.842Z,26.75
2018-03-22T01:07:02.587Z,26.75
2018-03-22T01:08:41.180Z,26.00
2018-03-22T01:10:19.249Z,26.75
2018-03-22T01:11:57.002Z,27.50
2018-03-22T01:13:35.236Z,25.75
2018-03-22T01:15:16.987Z,26.75
2018-03-22T01:16:56.450Z,29.00
2018-03-22T01:18:36.259Z,28.00
2018-03-22T01:20:14.098Z,26.75
2018-03-22T01:21:52.038Z,26.50
2018-03-22T01:23:30.927Z,26.75
2018-03-22T01:25:08.703Z,27.75
2018-03-22T01:26:46.359Z,31.00
2018-03-22T01:28:23.899Z,27.25
2018-03-22T01:30:02.807Z,29.25
2018-03-22T01:31:42.352Z,25.75
2018-03-22T01:33:20.266Z,27.75
2018-03-22T01:34:58.058Z,26.25
2018-03-22T01:36:36.294Z,26.75
2018-03-22T01:38:14.295Z,27.00
2018-03-22T01:39:53.207Z,26.00
2018-03-22T01:41:31.361Z,29.75
2018-03-22T01:43:11.376Z,29.25
2018-03-22T01:44:49.628Z,29.25
2018-03-22T01:46:29.481Z,31.75
2018-03-22T01:48:07.053Z,28.75
2018-03-22T01:49:44.680Z,28.75
2018-03-22T01:51:22.447Z,26.75
2018-03-22T01:53:14.810Z,26.75
2018-03-22T01:54:52.321Z,25.75
2018-03-22T01:56:30.154Z,29.75
2018-03-22T01:58:07.741Z,26.25
2018-03-22T01:59:45.267Z,26.75
2018-03-22T02:01:23.256Z,29.00
2018-03-22T02:03:01.183Z,29.50
2018-03-22T02:04:40.099Z,27.75
2018-03-22T02:06:17.750Z,29.75
2018-03-22T02:07:56.019Z,26.75
2018-03-22T02:09:34.792Z,26.75
2018-03-22T02:11:12.652Z,25.75
2018-03-22T02:12:50.244Z,26.50
2018-03-22T02:14:28.745Z,27.00
2018-03-22T02:16:10.581Z,24.75
2018-03-22T02:19:46.917Z,26.00
2018-03-22T02:21:24.529Z,26.75
2018-03-22T02:23:02.069Z,27.25
2018-03-22T02:24:39.764Z,26.25
2018-03-22T02:26:17.966Z,26.75
2018-03-22T02:27:55.044Z,24.00
2018-03-22T02:29:31.812Z,26.75
2018-03-22T02:31:10.162Z,26.00
2018-03-22T02:32:48.050Z,24.50
2018-03-22T02:34:25.587Z,22.25
2018-03-22T02:36:03.795Z,21.25
2018-03-22T02:37:41.853Z,18.75
2018-03-22T02:39:19.321Z,25.25
2018-03-22T02:40:56.877Z,24.25
2018-03-22T02:42:33.978Z,26.00
2018-03-22T02:44:12.437Z,25.50
2018-03-22T02:45:51.063Z,24.00
2018-03-22T02:47:29.936Z,19.75
2018-03-22T02:49:07.214Z,23.75
2018-03-22T02:50:45.088Z,22.25
2018-03-22T02:52:22.205Z,24.25
2018-03-22T02:54:08.453Z,19.25
2018-03-22T02:55:46.863Z,23.75
2018-03-22T02:57:24.322Z,22.50
2018-03-22T02:59:01.999Z,22.25
2018-03-22T03:00:44.948Z,22.50
2018-03-22T03:02:22.428Z,27.75
2018-03-22T03:04:00.133Z,25.00
2018-03-22T03:05:37.442Z,26.25
2018-03-22T03:07:21.454Z,26.75
2018-03-22T03:08:58.476Z,26.50
2018-03-22T03:10:35.547Z,25.00
2018-03-22T03:12:12.731Z,25.75
2018-03-22T03:13:49.769Z,27.75
2018-03-22T03:15:27.095Z,27.00
2018-03-22T03:17:04.001Z,26.50
2018-03-22T03:18:41.824Z,21.00
2018-03-22T03:20:19.603Z,24.75
2018-03-22T03:21:58.454Z,27.75
2018-03-22T03:23:35.206Z,25.50
2018-03-22T03:25:12.446Z,28.00
2018-03-22T03:26:49.477Z,27.00
2018-03-22T03:28:26.638Z,26.25
2018-03-22T03:30:04.813Z,28.25
2018-03-22T03:31:42.414Z,26.25
2018-03-22T03:33:19.220Z,29.75
2018-03-22T03:34:56.680Z,26.25
2018-03-22T03:36:33.815Z,27.75
2018-03-22T03:38:10.506Z,29.75
2018-03-22T03:39:47.566Z,24.75
2018-03-22T03:41:25.296Z,28.50
2018-03-22T03:43:03.074Z,26.25
2018-03-22T03:44:40.339Z,28.00
2018-03-22T03:46:17.587Z,27.00
2018-03-22T03:47:55.536Z,30.25
2018-03-22T03:49:32.453Z,30.00
2018-03-22T03:51:09.217Z,29.25
2018-03-22T03:52:46.546Z,29.00
2018-03-22T03:54:24.680Z,29.50
2018-03-22T03:56:02.873Z,26.00
2018-03-22T03:57:41.511Z,29.25
2018-03-22T03:59:30.201Z,33.25
2018-03-22T04:01:07.621Z,30.00
2018-03-22T04:02:45.613Z,28.25
2018-03-22T04:04:22.630Z,29.25
2018-03-22T04:06:00.759Z,29.50
2018-03-22T04:07:38.184Z,28.50
2018-03-22T04:09:14.845Z,31.00
2018-03-22T04:10:52.387Z,27.75
2018-03-22T04:12:29.392Z,28.00
2018-03-22T04:14:06.908Z,28.75
2018-03-22T04:15:48.877Z,30.50
2018-03-22T04:17:25.705Z,30.00
2018-03-22T04:19:03.251Z,31.75
2018-03-22T04:20:40.271Z,28.50
2018-03-22T04:22:17.889Z,30.75
2018-03-22T04:23:54.831Z,32.50
2018-03-22T04:25:32.254Z,30.75
2018-03-22T04:27:09.412Z,29.50
2018-03-22T04:28:46.554Z,29.50
2018-03-22T04:30:24.520Z,29.75
2018-03-22T04:32:01.742Z,29.00
2018-03-22T04:33:39.046Z,29.00
2018-03-22T04:35:16.563Z,26.25
2018-03-22T04:36:53.409Z,27.75
2018-03-22T04:38:30.458Z,31.00
2018-03-22T04:40:08.077Z,31.25
2018-03-22T04:41:45.547Z,29.50
2018-03-22T04:43:22.743Z,30.00
2018-03-22T04:45:00.135Z,31.25
2018-03-22T04:46:36.815Z,29.50
2018-03-22T04:48:14.059Z,27.25
2018-03-22T04:49:50.780Z,29.00
2018-03-22T04:51:28.229Z,28.50
2018-03-22T04:53:05.050Z,31.75
2018-03-22T04:54:42.055Z,27.25
2018-03-22T04:56:19.788Z,31.00
2018-03-22T04:57:57.003Z,29.75
2018-03-22T04:59:33.687Z,29.25
2018-03-22T05:01:10.926Z,26.25
2018-03-22T05:02:50.856Z,29.75
2018-03-22T05:04:29.135Z,26.25
2018-03-22T05:06:06.408Z,28.75
2018-03-22T05:07:43.784Z,32.00
2018-03-22T05:09:20.960Z,27.00
2018-03-22T05:10:58.407Z,28.75
2018-03-22T05:12:35.673Z,27.50
2018-03-22T05:14:13.596Z,29.50
2018-03-22T05:15:51.825Z,30.50
2018-03-22T05:17:29.452Z,29.25
2018-03-22T05:19:06.844Z,29.50
2018-03-22T05:20:44.004Z,30.00
2018-03-22T05:22:21.056Z,27.00
2018-03-22T05:23:58.842Z,28.25
2018-03-22T05:25:35.862Z,29.50
2018-03-22T05:27:13.844Z,27.75
2018-03-22T05:28:51.649Z,30.75
2018-03-22T05:30:29.549Z,31.75
2018-03-22T05:32:07.185Z,29.25
2018-03-22T05:33:44.783Z,30.00
2018-03-22T05:35:24.346Z,30.25
2018-03-22T05:37:02.681Z,29.75
2018-03-22T05:38:40.271Z,30.25
2018-03-22T05:40:17.836Z,32.00
2018-03-22T05:41:55.587Z,27.75
2018-03-22T05:43:34.019Z,30.75
2018-03-22T05:45:14.290Z,28.25
2018-03-22T05:46:52.257Z,30.00
2018-03-22T05:48:29.806Z,29.50
2018-03-22T05:50:07.430Z,27.75
2018-03-22T05:51:45.439Z,29.00
2018-03-22T05:53:24.260Z,29.25
2018-03-22T05:55:02.177Z,24.50
2018-03-22T05:56:39.900Z,28.00
2018-03-22T05:58:18.144Z,25.75
2018-03-22T05:59:56.427Z,31.00
2018-03-22T06:01:34.681Z,31.25
2018-03-22T06:03:12.799Z,30.25
2018-03-22T06:04:50.646Z,23.50
2018-03-22T06:06:28.273Z,29.00
2018-03-22T06:08:06.936Z,23.00
2018-03-22T06:09:44.614Z,29.25
2018-03-22T06:11:22.632Z,25.25
2018-03-22T06:13:00.159Z,22.50
2018-03-22T06:14:38.505Z,24.75
2018-03-22T06:16:16.762Z,25.75
2018-03-22T06:17:54.655Z,17.75
2018-03-22T06:19:33.247Z,19.50
2018-03-22T06:21:12.419Z,23.75
2018-03-22T06:22:50.249Z,24.00
2018-03-22T06:24:30.945Z,24.00
2018-03-22T06:26:09.142Z,26.75
2018-03-22T06:27:53.886Z,29.00
2018-03-22T06:29:31.600Z,23.00
2018-03-22T06:31:09.738Z,28.25
2018-03-22T06:32:47.815Z,21.25
2018-03-22T06:34:26.800Z,26.50
2018-03-22T06:36:04.666Z,35.00
2018-03-22T06:37:43.397Z,23.00
2018-03-22T06:39:22.436Z,23.75
2018-03-22T06:41:00.317Z,23.25
2018-03-22T06:42:38.145Z,25.25
2018-03-22T06:44:17.101Z,25.00
2018-03-22T06:45:55.730Z,21.75
2018-03-22T06:47:33.311Z,26.50
2018-03-22T06:49:11.254Z,26.00
2018-03-22T06:50:49.034Z,22.25
2018-03-22T06:52:27.007Z,18.25
2018-03-22T06:54:04.843Z,23.00
2018-03-22T06:55:42.628Z,22.00
2018-03-22T06:57:23.460Z,22.75
2018-03-22T06:59:01.723Z,23.25
2018-03-22T07:00:39.450Z,27.75
2018-03-22T07:02:17.332Z,25.00
2018-03-22T07:03:55.386Z,21.00
2018-03-22T07:05:33.585Z,16.50
2018-03-22T07:07:11.521Z,22.75
2018-03-22T07:08:49.069Z,23.75
2018-03-22T07:10:26.726Z,21.50
2018-03-22T07:12:05.099Z,29.00
2018-03-22T07:13:42.728Z,29.75
2018-03-22T07:15:20.489Z,24.25
2018-03-22T07:16:58.189Z,22.00
2018-03-22T07:18:36.806Z,26.75
2018-03-22T07:20:15.585Z,27.00
2018-03-22T07:21:53.233Z,24.25
2018-03-22T07:25:05.191Z,28.50
2018-03-22T07:26:42.773Z,27.75
2018-03-22T07:28:20.585Z,26.75
2018-03-22T07:29:58.446Z,22.25
2018-03-22T07:31:36.696Z,24.75
2018-03-22T07:33:14.212Z,20.00
2018-03-22T07:36:22.534Z,27.75
2018-03-22T07:38:01.028Z,22.25
2018-03-22T07:39:38.575Z,20.00
2018-03-22T07:41:16.948Z,25.75
2018-03-22T07:42:59.030Z,23.50
2018-03-22T07:44:41.542Z,27.50
2018-03-22T07:46:19.379Z,20.75
2018-03-22T07:47:56.970Z,28.75
2018-03-22T07:49:35.396Z,24.00
2018-03-22T07:51:13.133Z,23.00
2018-03-22T07:52:50.733Z,17.00
2018-03-22T07:54:28.920Z,21.25
2018-03-22T07:56:07.375Z,20.50
2018-03-22T07:57:45.566Z,21.00
2018-03-22T07:59:23.109Z,24.25
2018-03-22T08:01:01.229Z,22.75
2018-03-22T08:02:39.049Z,22.50
2018-03-22T08:04:17.139Z,21.00
2018-03-22T08:05:54.750Z,22.00
2018-03-22T08:07:32.826Z,18.50
2018-03-22T08:09:10.312Z,29.25
2018-03-22T08:10:48.238Z,21.00
2018-03-22T08:12:25.722Z,25.00
2018-03-22T08:14:03.369Z,26.50
2018-03-22T08:15:41.034Z,18.25
2018-03-22T08:17:18.930Z,25.50
2018-03-22T08:18:56.959Z,24.00
2018-03-22T08:20:35.621Z,23.00
2018-03-22T08:22:13.342Z,22.25
2018-03-22T08:23:51.931Z,18.00
2018-03-22T08:25:29.642Z,25.00
2018-03-22T08:27:07.438Z,22.75
2018-03-22T08:28:45.182Z,20.25
2018-03-22T08:30:25.849Z,23.25
2018-03-22T08:32:03.392Z,18.00
2018-03-22T08:33:41.462Z,23.00
2018-03-22T08:35:18.819Z,21.75
2018-03-22T08:36:58.188Z,20.50
2018-03-22T08:38:36.013Z,23.25
2018-03-22T08:40:13.400Z,23.50
2018-03-22T08:43:26.414Z,18.50
2018-03-22T08:45:03.752Z,22.00
2018-03-22T08:46:41.542Z,18.75
2018-03-22T08:48:19.063Z,20.25
2018-03-22T08:49:57.333Z,23.25
2018-03-22T08:51:34.777Z,17.00
2018-03-22T08:53:12.941Z,22.50
2018-03-22T08:54:50.171Z,20.50
2018-03-22T08:56:27.969Z,15.50
2018-03-22T08:58:05.318Z,12.25
2018-03-22T08:59:42.873Z,14.00
2018-03-22T09:01:20.626Z,18.75
2018-03-22T09:02:59.386Z,8.75
2018-03-22T09:04:36.749Z,19.75
2018-03-22T09:06:14.166Z,18.00
2018-03-22T09:07:51.600Z,19.75
2018-03-22T09:09:29.474Z,24.00
2018-03-22T09:12:41.801Z,17.00
2018-03-22T09:14:19.184Z,20.00
2018-03-22T09:15:57.221Z,23.50
2018-03-22T09:17:34.570Z,20.25
2018-03-22T09:19:11.976Z,18.75
2018-03-22T09:20:49.171Z,16.00
2018-03-22T09:22:26.971Z,8.00
2018-03-22T09:24:04.530Z,16.75
2018-03-22T09:25:41.813Z,20.50
2018-03-22T09:27:18.942Z,21.00
2018-03-22T09:28:57.237Z,16.25
2018-03-22T09:30:34.532Z,23.75
2018-03-22T09:32:11.793Z,19.50
2018-03-22T09:33:48.932Z,19.75
2018-03-22T09:35:26.968Z,18.50
2018-03-22T09:37:04.339Z,21.00
2018-03-22T09:38:42.509Z,23.75
2018-03-22T09:40:19.922Z,24.25
2018-03-22T09:41:57.611Z,20.00
2018-03-22T09:43:35.535Z,23.50
2018-03-22T09:45:15.113Z,23.00
2018-03-22T09:46:52.290Z,26.25
2018-03-22T09:48:29.745Z,23.00
2018-03-22T09:50:07.504Z,21.50
2018-03-22T09:51:44.881Z,19.75
2018-03-22T09:53:23.015Z,21.00
2018-03-22T09:55:00.591Z,25.50
2018-03-22T09:56:37.709Z,25.50
2018-03-22T09:58:15.000Z,24.50
2018-03-22T09:59:51.984Z,21.50
2018-03-22T10:01:29.889Z,17.00
2018-03-22T10:03:06.795Z,18.50
2018-03-22T10:04:44.657Z,23.25
2018-03-22T10:06:22.690Z,17.00
2018-03-22T10:08:00.766Z,20.50
2018-03-22T10:09:38.164Z,17.25
2018-03-22T10:11:15.257Z,19.00
2018-03-22T10:12:53.667Z,14.75
2018-03-22T10:14:31.155Z,17.50
2018-03-22T10:16:08.453Z,21.75
2018-03-22T10:17:45.834Z,19.75
2018-03-22T10:19:23.624Z,14.00
2018-03-22T10:21:00.895Z,19.75
2018-03-22T10:22:38.155Z,18.00
2018-03-22T10:24:15.224Z,21.50
2018-03-22T10:25:53.607Z,18.00
2018-03-22T10:27:30.713Z,18.50
2018-03-22T10:29:08.092Z,21.00
2018-03-22T10:30:45.636Z,13.50
2018-03-22T10:32:24.025Z,20.00
2018-03-22T10:34:01.061Z,15.00
2018-03-22T10:35:38.129Z,20.00
2018-03-22T10:37:16.005Z,18.75
2018-03-22T10:38:53.593Z,16.75
2018-03-22T10:40:30.543Z,21.75
2018-03-22T10:42:08.341Z,16.75
2018-03-22T10:43:45.723Z,18.75
2018-03-22T10:47:14.004Z,17.50
2018-03-22T10:48:50.989Z,19.00
2018-03-22T10:52:09.430Z,20.75
2018-03-22T10:53:46.272Z,27.25
2018-03-22T10:55:23.257Z,18.50
2018-03-22T10:57:00.302Z,17.75
2018-03-22T10:58:37.927Z,17.25
2018-03-22T11:00:21.786Z,13.75
2018-03-22T11:02:01.807Z,21.50
2018-03-22T11:03:42.715Z,15.75
2018-03-22T11:05:20.208Z,18.75
2018-03-22T11:06:57.410Z,20.25
2018-03-22T11:08:34.617Z,15.25
2018-03-22T11:10:12.346Z,19.00
2018-03-22T11:11:49.966Z,23.00
2018-03-22T11:13:27.193Z,18.75
2018-03-22T11:15:04.335Z,19.75
2018-03-22T11:16:41.583Z,19.50
2018-03-22T11:18:19.134Z,16.00
2018-03-22T11:19:56.464Z,19.50
2018-03-22T11:21:33.695Z,26.50
2018-03-22T11:23:10.869Z,25.25
2018-03-22T11:24:49.174Z,24.50
2018-03-22T11:26:26.127Z,23.50
2018-03-22T11:28:03.159Z,28.00
2018-03-22T11:29:40.987Z,24.25
2018-03-22T11:31:19.187Z,27.00
2018-03-22T11:32:56.263Z,20.25
2018-03-22T11:34:33.406Z,28.25
2018-03-22T11:36:10.418Z,25.75
2018-03-22T11:37:48.506Z,26.00
2018-03-22T11:39:26.324Z,27.00
2018-03-22T11:41:04.340Z,26.00
2018-03-22T11:42:42.272Z,24.75
2018-03-22T11:44:20.484Z,26.75
2018-03-22T11:45:57.840Z,26.25
2018-03-22T11:47:34.954Z,23.75
2018-03-22T11:49:11.982Z,23.00
2018-03-22T11:50:49.384Z,27.50
2018-03-22T11:52:26.314Z,24.75
2018-03-22T11:54:03.331Z,24.75
2018-03-22T11:55:40.267Z,23.50
2018-03-22T11:57:17.752Z,21.25
2018-03-22T11:58:54.812Z,23.00
2018-03-22T12:00:33.678Z,23.25
2018-03-22T12:02:12.018Z,23.50
2018-03-22T12:03:49.954Z,19.75
2018-03-22T12:05:27.681Z,20.00
2018-03-22T12:07:04.686Z,19.00
2018-03-22T12:08:41.937Z,20.50
2018-03-22T12:10:18.975Z,14.25
2018-03-22T12:11:56.754Z,18.75
2018-03-22T12:13:33.731Z,21.75
2018-03-22T12:15:12.096Z,17.75
2018-03-22T12:16:51.508Z,20.75
2018-03-22T12:18:28.598Z,19.75
2018-03-22T12:20:06.114Z,20.00
2018-03-22T12:21:43.540Z,21.25
2018-03-22T12:23:20.811Z,21.50
2018-03-22T12:24:58.878Z,17.50
2018-03-22T12:26:37.160Z,18.00
2018-03-22T12:28:15.574Z,23.50
2018-03-22T12:29:52.533Z,19.25
2018-03-22T12:31:29.909Z,19.00
2018-03-22T12:33:06.989Z,18.75
2018-03-22T12:34:45.351Z,14.00
2018-03-22T12:36:22.258Z,15.25
2018-03-22T12:38:00.120Z,18.00
2018-03-22T12:39:37.224Z,20.25
2018-03-22T12:41:15.230Z,22.50
2018-03-22T12:42:52.393Z,20.00
2018-03-22T12:44:29.524Z,20.00
2018-03-22T12:46:07.482Z,20.00
2018-03-22T12:47:44.851Z,22.75
2018-03-22T12:49:21.900Z,21.00
2018-03-22T12:50:58.951Z,20.25
2018-03-22T12:52:36.406Z,19.00
2018-03-22T12:54:14.138Z,21.25
2018-03-22T12:55:52.234Z,23.50
2018-03-22T12:57:29.125Z,21.50
2018-03-22T12:59:06.325Z,17.00
2018-03-22T13:00:44.240Z,23.75
2018-03-22T13:02:21.677Z,18.75
2018-03-22T13:03:59.328Z,16.25
2018-03-22T13:05:36.536Z,19.75
2018-03-22T13:07:14.144Z,22.00
2018-03-22T13:08:52.202Z,17.75
2018-03-22T13:10:30.048Z,15.75
2018-03-22T13:12:07.141Z,17.00
2018-03-22T13:13:44.179Z,19.00
2018-03-22T13:15:21.731Z,16.50
2018-03-22T13:17:02.186Z,18.00
2018-03-22T13:18:41.794Z,18.25
2018-03-22T13:20:19.518Z,19.50
2018-03-22T13:21:56.907Z,17.50
2018-03-22T13:23:35.769Z,19.00
2018-03-22T13:25:13.428Z,20.25
2018-03-22T13:26:50.639Z,20.75
2018-03-22T13:28:28.743Z,16.75
2018-03-22T13:30:05.875Z,15.50
2018-03-22T13:31:43.456Z,20.00
2018-03-22T13:33:20.677Z,18.75
2018-03-22T13:34:58.004Z,16.25
2018-03-22T13:36:35.349Z,17.50
2018-03-22T13:38:13.558Z,19.00
2018-03-22T13:39:50.676Z,17.25
2018-03-22T13:41:27.869Z,19.50
2018-03-22T13:43:05.771Z,14.75
2018-03-22T13:46:16.459Z,18.25
2018-03-22T13:47:54.539Z,15.25
2018-03-22T13:49:32.961Z,18.75
2018-03-22T13:51:11.305Z,19.00
2018-03-22T13:52:49.179Z,19.00
2018-03-22T13:54:27.776Z,14.50
2018-03-22T13:56:06.210Z,14.75
2018-03-22T13:57:44.134Z,18.75
2018-03-22T13:59:22.051Z,20.50
2018-03-22T14:00:59.652Z,16.50
2018-03-22T14:02:38.257Z,23.00
2018-03-22T14:04:15.360Z,17.50
2018-03-22T14:05:52.753Z,17.25
2018-03-22T14:07:29.665Z,15.25
2018-03-22T14:09:07.345Z,17.25
2018-03-22T14:10:45.481Z,16.50
2018-03-22T14:12:22.633Z,13.75
2018-03-22T14:14:00.029Z,16.25
2018-03-22T14:15:38.674Z,17.25
2018-03-22T14:17:15.896Z,15.75
2018-03-22T14:18:53.201Z,14.75
2018-03-22T14:20:31.198Z,17.00
2018-03-22T14:22:09.258Z,15.00
2018-03-22T14:23:46.406Z,14.50
2018-03-22T14:25:23.468Z,20.00
2018-03-22T14:27:01.297Z,19.00
2018-03-22T14:28:38.774Z,17.25
2018-03-22T14:30:18.049Z,18.00
2018-03-22T14:31:55.356Z,17.50
2018-03-22T14:33:32.721Z,19.75
2018-03-22T14:35:09.749Z,18.00
2018-03-22T14:36:47.641Z,19.75
2018-03-22T14:38:25.470Z,23.50
2018-03-22T14:40:02.564Z,25.25
2018-03-22T14:41:41.810Z,25.25
2018-03-22T14:44:56.624Z,28.00
2018-03-22T14:46:34.095Z,31.50
2018-03-22T14:48:11.588Z,28.25
2018-03-22T14:49:50.232Z,26.75
2018-03-22T14:51:28.026Z,25.50
2018-03-22T14:53:05.220Z,28.75
2018-03-22T14:54:42.608Z,26.00
2018-03-22T14:56:19.796Z,30.25
2018-03-22T14:57:57.896Z,28.50
2018-03-22T14:59:34.961Z,23.00
2018-03-22T15:01:12.601Z,24.75
2018-03-22T15:02:49.590Z,23.75
2018-03-22T15:04:27.389Z,24.00
2018-03-22T15:06:04.365Z,23.75
2018-03-22T15:07:42.799Z,24.00
2018-03-22T15:09:19.940Z,22.00
2018-03-22T15:10:56.974Z,22.75
2018-03-22T15:12:34.140Z,24.00
2018-03-22T15:14:11.650Z,21.25
2018-03-22T15:15:48.941Z,20.75
2018-03-22T15:17:26.892Z,18.50
2018-03-22T15:19:04.974Z,21.25
2018-03-22T15:20:42.424Z,20.75
2018-03-22T15:22:19.620Z,21.25
2018-03-22T15:23:56.857Z,19.25
2018-03-22T15:25:34.702Z,22.25
2018-03-22T15:27:12.571Z,21.25
2018-03-22T15:28:49.664Z,19.00
2018-03-22T15:30:29.545Z,23.25
2018-03-22T15:32:06.799Z,24.00
2018-03-22T15:33:44.356Z,20.75
2018-03-22T15:35:21.569Z,18.25
2018-03-22T15:36:58.667Z,23.00
2018-03-22T15:38:35.712Z,26.75
2018-03-22T15:40:14.111Z,29.25
2018-03-22T15:43:38.127Z,37.75
2018-03-22T15:45:17.379Z,27.75
2018-03-22T15:46:55.183Z,30.75
2018-03-22T15:48:33.050Z,29.00
2018-03-22T15:50:10.176Z,29.25
2018-03-22T15:51:47.261Z,32.75
2018-03-22T15:53:26.710Z,30.25
2018-03-22T15:55:04.534Z,29.75
2018-03-22T15:56:41.709Z,31.25
2018-03-22T15:58:18.822Z,29.75
2018-03-22T15:59:56.862Z,28.50
2018-03-22T16:01:34.546Z,27.00
2018-03-22T16:03:11.699Z,26.50
2018-03-22T16:04:48.774Z,25.50
2018-03-22T16:06:34.541Z,21.75
2018-03-22T16:08:11.810Z,20.00
2018-03-22T16:09:48.732Z,19.00
2018-03-22T16:11:26.722Z,25.75
2018-03-22T16:13:04.044Z,24.00
2018-03-22T16:14:41.829Z,24.00
2018-03-22T16:16:19.215Z,18.75
2018-03-22T16:17:56.168Z,23.00
2018-03-22T16:19:33.557Z,24.75
2018-03-22T16:21:10.661Z,20.50
2018-03-22T16:22:48.567Z,20.75
2018-03-22T16:24:25.811Z,15.00
2018-03-22T16:26:03.875Z,15.00
2018-03-22T16:27:41.559Z,21.25
2018-03-22T16:29:19.206Z,17.75
2018-03-22T16:30:56.550Z,16.75
2018-03-22T16:32:34.233Z,15.25
2018-03-22T16:34:11.268Z,19.00
2018-03-22T16:35:48.362Z,19.25
2018-03-22T16:37:25.353Z,21.25
2018-03-22T16:39:03.814Z,18.25
2018-03-22T16:40:40.991Z,19.50
2018-03-22T16:42:18.228Z,15.50
2018-03-22T16:43:55.289Z,20.75
2018-03-22T16:45:32.594Z,17.75
2018-03-22T16:47:09.643Z,17.75
2018-03-22T16:48:46.732Z,14.00
2018-03-22T16:50:23.842Z,16.75
2018-03-22T16:52:01.221Z,15.50
2018-03-22T16:53:38.245Z,16.00
2018-03-22T16:55:16.006Z,17.75
2018-03-22T16:56:53.008Z,16.50
2018-03-22T16:58:31.479Z,17.50
2018-03-22T17:00:08.562Z,15.00
2018-03-22T17:01:46.126Z,14.50
2018-03-22T17:03:24.183Z,15.50
2018-03-22T17:05:01.546Z,15.00
2018-03-22T17:06:38.760Z,14.00
2018-03-22T17:08:16.714Z,16.50
2018-03-22T17:10:00.313Z,14.75
2018-03-22T17:11:38.477Z,14.75
2018-03-22T17:13:15.389Z,12.00
2018-03-22T17:14:52.368Z,12.75
2018-03-22T17:16:29.581Z,13.75
2018-03-22T17:18:07.431Z,13.75
2018-03-22T17:19:44.478Z,15.25
2018-03-22T17:21:22.339Z,14.25
2018-03-22T17:22:59.455Z,13.00
2018-03-22T17:24:37.095Z,12.00
2018-03-22T17:26:14.872Z,12.75
2018-03-22T17:27:51.913Z,13.50
2018-03-22T17:29:28.896Z,13.00
2018-03-22T17:31:06.621Z,12.75
2018-03-22T17:32:44.126Z,12.00
2018-03-22T17:34:21.537Z,12.25
2018-03-22T17:35:58.677Z,16.00
2018-03-22T17:37:36.097Z,14.50
2018-03-22T17:39:12.973Z,17.75
2018-03-22T17:40:50.892Z,16.50
2018-03-22T17:42:28.150Z,13.75
2018-03-22T17:44:05.688Z,16.50
2018-03-22T17:45:43.025Z,15.25
2018-03-22T17:47:20.404Z,15.25
2018-03-22T17:48:57.348Z,13.00
2018-03-22T17:50:34.672Z,15.00
2018-03-22T17:52:12.426Z,12.75
2018-03-22T17:53:49.284Z,12.25
2018-03-22T17:55:26.482Z,15.50
2018-03-22T17:57:04.024Z,13.75
2018-03-22T17:58:41.347Z,13.00
2018-03-22T18:00:20.023Z,14.50
2018-03-22T18:01:57.163Z,14.75
2018-03-22T18:03:35.116Z,14.25
2018-03-22T18:05:12.458Z,15.00
2018-03-22T18:06:50.394Z,16.00
2018-03-22T18:08:27.644Z,16.50
2018-03-22T18:10:05.190Z,15.00
2018-03-22T18:11:42.575Z,15.00
2018-03-22T18:13:22.055Z,18.25
2018-03-22T18:14:59.060Z,15.75
2018-03-22T18:16:38.527Z,15.75
2018-03-22T18:18:15.441Z,16.75
2018-03-22T18:19:53.507Z,17.75
2018-03-22T18:21:30.504Z,14.00
2018-03-22T18:23:10.218Z,15.25
2018-03-22T18:24:47.509Z,14.00
2018-03-22T18:26:24.543Z,15.00
2018-03-22T18:28:02.298Z,12.00
2018-03-22T18:29:39.926Z,12.00
2018-03-22T18:31:17.189Z,13.25
2018-03-22T18:32:54.128Z,14.00
2018-03-22T18:34:31.432Z,15.75
2018-03-22T18:36:09.050Z,17.75
2018-03-22T18:37:47.024Z,15.00
2018-03-22T18:39:24.069Z,16.00
2018-03-22T18:41:02.035Z,14.50
2018-03-22T18:42:40.276Z,14.50
2018-03-22T18:44:17.343Z,17.00
2018-03-22T18:45:54.604Z,17.75
2018-03-22T18:47:32.268Z,17.50
2018-03-22T18:49:10.447Z,20.50
2018-03-22T18:50:48.312Z,20.00
2018-03-22T18:52:26.197Z,19.25
2018-03-22T18:54:03.390Z,17.25
2018-03-22T18:55:40.827Z,19.50
2018-03-22T18:57:18.315Z,19.25
2018-03-22T18:58:55.402Z,21.75
2018-03-22T19:00:35.183Z,19.00
2018-03-22T19:02:14.744Z,21.50
2018-03-22T19:03:52.600Z,21.00
2018-03-22T19:05:30.437Z,23.00
2018-03-22T19:07:07.813Z,23.50
2018-03-22T19:08:46.687Z,20.75
2018-03-22T19:12:11.924Z,28.75
2018-03-22T19:13:50.458Z,22.75
2018-03-22T19:15:29.675Z,25.75
2018-03-22T19:17:07.191Z,19.25
2018-03-22T19:18:45.833Z,22.75
2018-03-22T19:20:23.726Z,21.75
2018-03-22T19:22:01.123Z,22.00
2018-03-22T19:23:38.317Z,21.00
2018-03-22T19:25:16.278Z,20.75
2018-03-22T19:26:53.955Z,21.25
2018-03-22T19:28:31.776Z,22.50
2018-03-22T19:30:09.073Z,20.75
2018-03-22T19:31:47.312Z,20.50
2018-03-22T19:33:24.710Z,22.75
2018-03-22T19:35:01.539Z,23.75
2018-03-22T19:36:38.649Z,24.75
2018-03-22T19:38:15.540Z,25.00
2018-03-22T19:39:52.996Z,25.00
2018-03-22T19:41:29.906Z,24.25
2018-03-22T19:43:06.703Z,27.00
2018-03-22T19:44:43.908Z,25.00
2018-03-22T19:46:23.166Z,25.75
2018-03-22T19:48:00.109Z,25.75
2018-03-22T19:49:37.227Z,28.00
2018-03-22T19:51:14.533Z,26.50
2018-03-22T19:52:51.958Z,28.00
2018-03-22T19:54:29.090Z,29.00
2018-03-22T19:56:06.246Z,28.00
2018-03-22T19:57:43.361Z,29.00
2018-03-22T19:59:20.738Z,24.50
2018-03-22T20:01:00.080Z,28.25
2018-03-22T20:02:38.059Z,28.25
2018-03-22T20:04:15.179Z,32.50
2018-03-22T20:05:53.331Z,33.25
2018-03-22T20:07:30.495Z,30.00
2018-03-22T20:09:07.877Z,30.25
2018-03-22T20:10:45.685Z,32.75
2018-03-22T20:12:23.229Z,30.50
2018-03-22T20:14:00.916Z,31.00
2018-03-22T20:15:38.478Z,29.25
2018-03-22T20:17:15.652Z,30.75
2018-03-22T20:18:53.232Z,32.75
2018-03-22T20:20:30.273Z,30.75
2018-03-22T20:22:07.418Z,29.25
2018-03-22T20:23:44.521Z,29.50
2018-03-22T20:25:22.198Z,30.00
2018-03-22T20:26:59.232Z,25.75
2018-03-22T20:28:36.329Z,27.75
2018-03-22T20:30:46.170Z,20.25
2018-03-22T20:32:23.708Z,25.25
2018-03-22T20:34:01.479Z,24.25
2018-03-22T20:35:38.708Z,20.00
2018-03-22T20:37:16.045Z,23.75
2018-03-22T20:38:53.360Z,23.50
2018-03-22T20:40:30.312Z,23.75
2018-03-22T20:42:07.783Z,23.50
2018-03-22T20:43:44.853Z,23.25
2018-03-22T20:45:22.358Z,20.00
2018-03-22T20:47:01.339Z,21.25
2018-03-22T20:48:38.375Z,22.75
2018-03-22T20:50:15.588Z,21.75
2018-03-22T20:51:52.816Z,19.25
2018-03-22T20:53:29.682Z,18.25
2018-03-22T20:55:10.759Z,18.75
2018-03-22T20:56:49.968Z,20.25
2018-03-22T20:58:27.190Z,17.00
2018-03-22T21:00:04.264Z,16.50
2018-03-22T21:01:42.462Z,17.50
2018-03-22T21:03:19.441Z,15.50
2018-03-22T21:04:56.813Z,17.25
2018-03-22T21:06:34.011Z,13.75
2018-03-22T21:08:10.947Z,14.00
2018-03-22T21:09:48.680Z,15.75
2018-03-22T21:11:25.861Z,13.50
2018-03-22T21:13:02.853Z,13.50
2018-03-22T21:14:40.038Z,15.00
2018-03-22T21:16:17.243Z,12.00
2018-03-22T21:17:54.428Z,13.75
2018-03-22T21:19:31.609Z,12.25
2018-03-22T21:21:09.513Z,16.25
2018-03-22T21:22:46.916Z,14.50
2018-03-22T21:24:25.231Z,14.50